Time;durP1;ratioP1;P1;durP2;ratioP2;P2;SDS_P1;SDS_P2;PMS_P1;PMS_P2;Temp;Humidity;BMP_temperature;BMP_pressure;BME280_temperature;BME280_humidity;BME280_pressure;Samples;Min_cycle;Max_cycle;Signal;HPM_P1;HPM_P2
2022/08/16 00:01:55;;;;;;;128.13;57.47;;;;;;;16.18;100.00;100698.22;5053291;28;20036;-74
2022/08/16 00:04:21;;;;;;;105.35;50.10;;;;;;;16.20;100.00;100695.34;5053229;28;20068;-74
2022/08/16 00:06:47;;;;;;;160.07;64.15;;;;;;;16.25;100.00;100709.06;5053032;28;20029;-74
2022/08/16 00:09:12;;;;;;;136.93;59.33;;;;;;;16.24;100.00;100698.50;5053102;28;20059;-75
2022/08/16 00:11:40;;;;;;;164.07;67.80;;;;;;;16.26;100.00;100705.38;5053041;28;20031;-75
2022/08/16 00:14:10;;;;;;;158.65;64.13;;;;;;;16.29;100.00;100705.00;5052717;28;20093;-74
2022/08/16 00:16:36;;;;;;;131.00;57.20;;;;;;;16.26;100.00;100701.81;5053165;28;20074;-74
2022/08/16 00:19:03;;;;;;;132.00;56.65;;;;;;;16.30;100.00;100704.00;5052559;28;20112;-74
2022/08/16 00:21:28;;;;;;;145.23;60.35;;;;;;;16.32;100.00;100704.63;5053003;28;20037;-74
2022/08/16 00:23:54;;;;;;;173.60;70.65;;;;;;;16.35;100.00;100706.13;5052772;28;20374;-75
2022/08/16 00:26:19;;;;;;;142.88;59.53;;;;;;;16.37;100.00;100710.28;5052449;28;20029;-74
2022/08/16 00:28:44;;;;;;;124.45;55.75;;;;;;;16.39;100.00;100710.09;5052690;28;20464;-74
2022/08/16 00:31:10;;;;;;;115.47;52.38;;;;;;;16.39;100.00;100710.97;5055198;28;20061;-73
2022/08/16 00:33:35;;;;;;;110.00;49.17;;;;;;;16.39;100.00;100705.59;5055644;28;20063;-74
2022/08/16 00:36:00;;;;;;;137.25;59.45;;;;;;;16.40;100.00;100709.94;5056477;28;20029;-75
2022/08/16 00:38:26;;;;;;;110.35;50.75;;;;;;;16.39;100.00;100710.97;5056568;28;20044;-74
2022/08/16 00:40:53;;;;;;;147.13;61.53;;;;;;;16.39;100.00;100716.34;5056676;28;20364;-74
2022/08/16 00:43:23;;;;;;;114.93;52.15;;;;;;;16.37;100.00;100714.84;5056534;28;20052;-74
2022/08/16 00:46:29;;;;;;;135.20;58.60;;;;;;;16.34;100.00;100713.34;5057094;28;20087;-74
2022/08/16 00:48:55;;;;;;;110.40;49.92;;;;;;;16.29;100.00;100714.91;5042977;28;20040;-74
2022/08/16 00:51:22;;;;;;;114.05;52.45;;;;;;;16.27;100.00;100717.78;5056693;28;20462;-74
2022/08/16 00:53:49;;;;;;;99.38;46.80;;;;;;;16.25;100.00;100717.09;5056520;28;20075;-74
2022/08/16 00:56:18;;;;;;;86.63;41.35;;;;;;;16.26;100.00;100718.78;5056450;28;20028;-75
2022/08/16 00:58:45;;;;;;;142.40;59.10;;;;;;;16.27;100.00;100715.09;5057124;28;20029;-74
2022/08/16 01:01:12;;;;;;;129.65;57.38;;;;;;;16.29;100.00;100715.75;5056314;28;20029;-75
2022/08/16 01:03:41;;;;;;;184.93;69.75;;;;;;;16.31;100.00;100713.69;5056279;28;20098;-74
2022/08/16 01:06:08;;;;;;;171.52;68.47;;;;;;;16.34;100.00;100715.19;5056213;28;20020;-74
2022/08/16 01:08:35;;;;;;;179.45;67.82;;;;;;;16.36;100.00;100700.59;5056448;28;20036;-74
2022/08/16 01:11:01;;;;;;;178.18;68.72;;;;;;;16.38;100.00;100698.53;5056889;28;20068;-74
2022/08/16 01:13:30;;;;;;;170.30;69.10;;;;;;;16.40;100.00;100704.56;5055860;28;20111;-74
2022/08/16 01:16:12;;;;;;;163.73;65.60;;;;;;;16.42;100.00;100699.03;5055895;28;20111;-74
2022/08/16 01:18:46;;;;;;;157.23;63.58;;;;;;;16.42;100.00;100699.03;5055265;28;20025;-74
2022/08/16 01:21:29;;;;;;;149.68;61.78;;;;;;;16.39;100.00;100692.16;5055907;28;20444;-74
2022/08/16 01:24:04;;;;;;;153.25;63.63;;;;;;;16.39;100.00;100689.47;5054409;28;20025;-74
2022/08/16 01:26:32;;;;;;;140.70;58.85;;;;;;;16.39;100.00;100696.69;5055326;28;20478;-75
2022/08/16 01:29:02;;;;;;;140.95;59.47;;;;;;;16.34;100.00;100691.84;5054581;28;20040;-75
2022/08/16 01:31:28;;;;;;;141.13;59.13;;;;;;;16.30;100.00;100689.72;5055555;28;20037;-74
2022/08/16 01:33:54;;;;;;;158.90;64.80;;;;;;;16.29;100.00;100688.91;5055820;28;20037;-74
2022/08/16 01:36:20;;;;;;;158.00;63.63;;;;;;;16.27;100.00;100690.94;5056165;28;20041;-74
2022/08/16 01:38:48;;;;;;;139.10;59.80;;;;;;;16.25;100.00;100692.94;5055408;28;20587;-74
2022/08/16 01:41:17;;;;;;;149.65;59.50;;;;;;;16.22;100.00;100694.13;5055710;28;20083;-74
2022/08/16 01:43:44;;;;;;;149.00;60.63;;;;;;;16.22;100.00;100699.50;5054795;28;20452;-74
2022/08/16 01:46:27;;;;;;;152.30;61.20;;;;;;;16.20;100.00;100698.03;5056190;28;20088;-75
2022/08/16 01:49:00;;;;;;;122.65;53.60;;;;;;;16.20;100.00;100692.66;5055909;28;20116;-75
2022/08/16 01:51:27;;;;;;;105.75;48.42;;;;;;;16.16;100.00;100696.72;5055941;28;20104;-76
2022/08/16 01:53:53;;;;;;;101.18;45.88;;;;;;;16.12;100.00;100706.97;5055194;28;20025;-75
2022/08/16 01:56:19;;;;;;;123.07;53.42;;;;;;;16.09;100.00;100711.84;5055536;28;20040;-75
2022/08/16 01:58:45;;;;;;;94.40;45.45;;;;;;;16.03;100.00;100711.56;5055138;28;20061;-75
2022/08/16 02:01:10;;;;;;;102.85;46.95;;;;;;;15.99;100.00;100706.75;5054169;28;20036;-75
2022/08/16 02:03:35;;;;;;;124.20;53.53;;;;;;;15.98;100.00;100707.75;5054899;28;20367;-75
2022/08/16 02:06:01;;;;;;;105.28;48.63;;;;;;;15.96;100.00;100701.69;5054979;28;20104;-75
2022/08/16 02:08:26;;;;;;;129.00;56.95;;;;;;;15.92;100.00;100706.59;5055595;28;20358;-78
2022/08/16 02:10:53;;;;;;;103.75;46.90;;;;;;;15.91;100.00;100706.78;5053715;28;20466;-75
2022/08/16 02:13:19;;;;;;;92.28;45.05;;;;;;;15.86;100.00;100702.78;5055020;28;20037;-74
2022/08/16 02:15:45;;;;;;;128.07;55.22;;;;;;;15.83;100.00;100692.41;5054991;28;20040;-75
2022/08/16 02:18:10;;;;;;;166.85;64.82;;;;;;;15.87;100.00;100695.56;5055362;28;20029;-75
2022/08/16 02:20:37;;;;;;;173.80;64.63;;;;;;;15.89;100.00;100696.22;5055206;28;20033;-76
2022/08/16 02:23:04;;;;;;;126.32;55.45;;;;;;;15.85;100.00;100700.25;5053953;28;20033;-75
2022/08/16 02:25:30;;;;;;;126.90;56.08;;;;;;;15.80;100.00;100700.78;5055167;28;20029;-75
2022/08/16 02:27:56;;;;;;;105.85;46.88;;;;;;;15.75;100.00;100700.47;5054951;28;20029;-75
2022/08/16 02:30:28;;;;;;;87.10;41.65;;;;;;;15.71;100.00;100696.47;5054918;28;20032;-76
2022/08/16 02:32:54;;;;;;;97.28;44.35;;;;;;;15.69;100.00;100698.50;5054961;28;20028;-75
2022/08/16 02:35:20;;;;;;;95.15;44.78;;;;;;;15.68;100.00;100694.97;5054829;28;20475;-75
2022/08/16 02:37:46;;;;;;;121.95;50.95;;;;;;;15.66;100.00;100694.31;5054903;28;20467;-75
2022/08/16 02:40:15;;;;;;;97.25;46.22;;;;;;;15.66;100.00;100688.13;5054583;28;20039;-75
2022/08/16 02:42:42;;;;;;;155.70;61.70;;;;;;;15.69;100.00;100690.47;5054603;28;20025;-75
2022/08/16 02:45:07;;;;;;;140.70;59.05;;;;;;;15.72;100.00;100695.47;5055641;28;20130;-75
2022/08/16 02:47:33;;;;;;;131.43;55.45;;;;;;;15.72;100.00;100695.47;5054386;28;20060;-75
2022/08/16 02:49:58;;;;;;;112.72;50.97;;;;;;;15.71;100.00;100701.00;5054830;28;20490;-75
2022/08/16 02:52:23;;;;;;;126.85;54.83;;;;;;;15.68;100.00;100694.97;5054808;28;20462;-75
2022/08/16 02:54:49;;;;;;;123.13;54.15;;;;;;;15.64;100.00;100695.50;5053918;28;20032;-75
2022/08/16 02:57:14;;;;;;;138.27;58.35;;;;;;;15.62;100.00;100698.34;5054316;28;20074;-75
2022/08/16 02:59:41;;;;;;;121.38;53.92;;;;;;;15.60;100.00;100691.47;5054265;28;20040;-76
2022/08/16 03:02:07;;;;;;;139.40;56.65;;;;;;;15.57;100.00;100695.38;5053916;28;20033;-76
2022/08/16 03:04:32;;;;;;;141.85;60.22;;;;;;;15.54;100.00;100694.88;5054165;28;20396;-75
2022/08/16 03:06:57;;;;;;;156.20;62.83;;;;;;;15.49;100.00;100690.88;5053692;28;20116;-75
2022/08/16 03:09:24;;;;;;;126.35;53.58;;;;;;;15.50;100.00;100695.22;5054503;28;20183;-75
2022/08/16 03:11:49;;;;;;;113.10;52.20;;;;;;;15.49;100.00;100690.03;5054261;28;20060;-75
2022/08/16 03:14:15;;;;;;;110.30;50.85;;;;;;;15.49;100.00;100690.03;5054028;28;20455;-75
2022/08/16 03:16:40;;;;;;;112.00;50.47;;;;;;;15.49;100.00;100701.59;5054386;28;20340;-76
2022/08/16 03:19:07;;;;;;;129.25;56.92;;;;;;;15.47;100.00;100698.25;5054160;28;20029;-75
2022/08/16 03:21:33;;;;;;;124.97;55.25;;;;;;;15.47;100.00;100695.56;5053793;28;20068;-75
2022/08/16 03:23:58;;;;;;;126.28;56.40;;;;;;;15.51;100.00;100704.94;5053304;28;20037;-75
2022/08/16 03:26:24;;;;;;;114.55;54.05;;;;;;;15.51;100.00;100701.44;5053628;28;20108;-75
2022/08/16 03:28:49;;;;;;;123.43;53.58;;;;;;;15.54;100.00;100708.28;5053921;28;20025;-75
2022/08/16 03:31:14;;;;;;;128.65;55.88;;;;;;;15.54;100.00;100695.72;5054259;28;20123;-76
2022/08/16 03:33:40;;;;;;;104.18;49.72;;;;;;;15.54;100.00;100694.88;5053318;28;20040;-76
2022/08/16 03:36:05;;;;;;;107.13;49.22;;;;;;;15.53;100.00;100696.72;5053159;28;20500;-75
2022/08/16 03:38:31;;;;;;;120.20;53.60;;;;;;;15.50;100.00;100697.91;5053332;28;20029;-75
2022/08/16 03:41:00;;;;;;;122.10;53.80;;;;;;;15.50;100.00;100699.75;5053462;28;20382;-75
2022/08/16 03:43:26;;;;;;;109.43;50.00;;;;;;;15.47;100.00;100697.44;5053711;28;20049;-74
2022/08/16 03:45:54;;;;;;;127.22;55.00;;;;;;;15.44;100.00;100698.59;5053440;28;20036;-75
2022/08/16 03:48:22;;;;;;;114.68;51.92;;;;;;;15.46;100.00;100709.16;5053526;28;20037;-75
2022/08/16 03:50:47;;;;;;;133.43;56.58;;;;;;;15.45;100.00;100702.97;5053310;28;20459;-75
2022/08/16 03:53:13;;;;;;;127.82;56.08;;;;;;;15.44;100.00;100703.16;5053501;28;20041;-75
2022/08/16 03:55:38;;;;;;;129.50;57.13;;;;;;;15.43;100.00;100704.97;5053297;28;20044;-74
2022/08/16 03:58:04;;;;;;;146.55;61.45;;;;;;;15.47;100.00;100708.16;5051836;28;20108;-75
2022/08/16 04:00:30;;;;;;;148.32;61.78;;;;;;;15.48;100.00;100707.97;5053219;28;20083;-76
2022/08/16 04:03:01;;;;;;;121.70;55.40;;;;;;;15.44;100.00;100706.66;5053124;28;20186;-76
2022/08/16 04:05:27;;;;;;;138.38;59.45;;;;;;;15.43;100.00;100709.50;5052349;28;20033;-75
2022/08/16 04:07:53;;;;;;;163.70;67.05;;;;;;;15.45;100.00;100715.53;5053046;28;20032;-75
2022/08/16 04:10:18;;;;;;;139.02;59.05;;;;;;;15.42;100.00;100719.41;5053055;28;20025;-75
2022/08/16 04:12:45;;;;;;;125.90;55.72;;;;;;;15.40;100.00;100725.94;5053458;28;20074;-76
2022/08/16 04:15:14;;;;;;;150.52;62.22;;;;;;;15.37;100.00;100721.75;5052234;28;20090;-75
2022/08/16 04:17:40;;;;;;;165.48;66.60;;;;;;;15.38;100.00;100715.38;5053059;28;20025;-75
2022/08/16 04:20:07;;;;;;;153.32;65.03;;;;;;;15.38;100.00;100720.75;5053285;28;20513;-75
2022/08/16 04:22:33;;;;;;;154.63;63.22;;;;;;;15.37;100.00;100721.75;5052916;28;20074;-75
2022/08/16 04:24:59;;;;;;;145.15;62.45;;;;;;;15.38;100.00;100731.47;5052629;28;20124;-74
2022/08/16 04:27:25;;;;;;;126.75;56.13;;;;;;;15.36;100.00;100740.69;5051408;28;20126;-74
2022/08/16 04:29:51;;;;;;;163.27;64.80;;;;;;;15.33;100.00;100728.47;5052759;28;20025;-74
2022/08/16 04:32:16;;;;;;;174.05;69.55;;;;;;;15.36;100.00;100738.00;5051364;28;20033;-74
2022/08/16 04:34:42;;;;;;;179.35;71.13;;;;;;;15.34;100.00;100736.34;5051557;28;20475;-74
2022/08/16 04:37:07;;;;;;;177.40;73.50;;;;;;;15.36;100.00;100741.56;5053030;28;20044;-74
2022/08/16 04:39:35;;;;;;;163.77;66.32;;;;;;;15.39;100.00;100729.63;5051453;28;20394;-74
2022/08/16 04:42:00;;;;;;;190.10;75.85;;;;;;;15.40;100.00;100731.31;5051630;28;20033;-75
2022/08/16 04:44:26;;;;;;;191.13;77.85;;;;;;;15.44;100.00;100730.78;5053207;28;20059;-75
2022/08/16 04:46:52;;;;;;;195.20;75.70;;;;;;;15.48;100.00;100729.44;5051521;28;20036;-76
2022/08/16 04:49:18;;;;;;;176.13;70.47;;;;;;;15.49;100.00;100727.56;5052983;28;20033;-74
2022/08/16 04:51:43;;;;;;;182.70;72.65;;;;;;;15.48;100.00;100729.44;5051472;28;20029;-75
2022/08/16 04:54:10;;;;;;;180.02;73.65;;;;;;;15.47;100.00;100735.78;5052599;28;20056;-77
2022/08/16 04:56:37;;;;;;;180.63;73.63;;;;;;;15.48;100.00;100740.16;5053210;28;20040;-78
2022/08/16 04:59:03;;;;;;;185.90;74.90;;;;;;;15.52;100.00;100746.84;5052920;28;20047;-78
2022/08/16 05:01:29;;;;;;;187.55;71.70;;;;;;;15.55;100.00;100744.81;5052884;28;20037;-78
2022/08/16 05:03:55;;;;;;;186.40;75.65;;;;;;;15.57;100.00;100750.84;5052469;28;20332;-78
2022/08/16 05:06:21;;;;;;;179.25;73.57;;;;;;;15.59;100.00;100746.16;5052564;28;20041;-78
2022/08/16 05:08:46;;;;;;;177.63;74.70;;;;;;;15.62;100.00;100751.16;5052767;28;20386;-77
2022/08/16 05:11:13;;;;;;;177.13;71.40;;;;;;;15.64;100.00;100747.28;5052358;28;20029;-79
2022/08/16 05:13:42;;;;;;;173.35;69.47;;;;;;;15.66;100.00;100750.63;5050993;28;20068;-78
2022/08/16 05:16:10;;;;;;;183.52;73.05;;;;;;;15.68;100.00;100755.81;5052507;28;20025;-79
2022/08/16 05:18:36;;;;;;;177.45;71.80;;;;;;;15.71;100.00;100757.34;5055102;28;20033;-80
2022/08/16 05:21:02;;;;;;;190.70;73.47;;;;;;;15.75;100.00;100762.16;5056093;28;20039;-79
2022/08/16 05:23:27;;;;;;;180.73;73.82;;;;;;;15.80;100.00;100756.31;5055837;28;20108;-79
2022/08/16 05:25:53;;;;;;;177.07;73.88;;;;;;;15.84;100.00;100761.13;5055895;28;20119;-79
2022/08/16 05:28:18;;;;;;;171.27;72.57;;;;;;;15.89;100.00;100765.16;5056003;28;20063;-79
2022/08/16 05:30:44;;;;;;;163.43;67.47;;;;;;;15.93;100.00;100759.25;5056070;28;20025;-76
2022/08/16 05:33:10;;;;;;;166.82;70.95;;;;;;;15.97;100.00;100768.63;5055545;28;20025;-77
2022/08/16 05:35:36;;;;;;;173.70;72.03;;;;;;;16.00;100.00;100765.59;5055938;28;20442;-76
2022/08/16 05:38:02;;;;;;;159.75;68.90;;;;;;;16.01;100.00;100771.78;5055687;28;20033;-77
2022/08/16 05:40:27;;;;;;;172.45;72.43;;;;;;;16.07;100.00;100775.63;5055450;28;20040;-76
2022/08/16 05:42:53;;;;;;;159.38;70.07;;;;;;;16.12;100.00;100781.28;5055368;28;20033;-80
2022/08/16 05:45:19;;;;;;;160.60;69.05;;;;;;;16.17;100.00;100779.75;5055778;28;20056;-79
2022/08/16 05:47:44;;;;;;;158.13;68.32;;;;;;;16.20;100.00;100774.00;5055054;28;20135;-79
2022/08/16 05:50:11;;;;;;;154.65;66.68;;;;;;;16.24;100.00;100782.53;5055328;28;20120;-78
2022/08/16 05:52:36;;;;;;;140.52;61.88;;;;;;;16.31;100.00;100782.69;5055416;28;20041;-75
2022/08/16 05:55:02;;;;;;;164.38;68.07;;;;;;;16.35;100.00;100779.44;5054801;28;20036;-76
2022/08/16 05:57:28;;;;;;;164.38;69.13;;;;;;;16.40;100.00;100776.22;5055573;28;20430;-77
2022/08/16 05:59:54;;;;;;;131.43;60.88;;;;;;;16.49;100.00;100769.78;5055084;28;20485;-76
2022/08/16 06:02:20;;;;;;;153.95;65.47;;;;;;;16.58;100.00;100781.28;5037195;28;20162;-79
2022/08/16 06:04:46;;;;;;;142.60;65.18;;;;;;;16.67;100.00;100776.69;5054820;28;20033;-77
2022/08/16 06:07:12;;;;;;;137.63;61.65;;;;;;;16.74;100.00;100770.41;5054795;28;20052;-75
2022/08/16 06:09:38;;;;;;;137.23;62.05;;;;;;;16.81;100.00;100775.91;5054397;28;20467;-77
2022/08/16 06:12:04;;;;;;;138.98;64.75;;;;;;;16.92;100.00;100775.50;5054674;28;20029;-77
2022/08/16 06:14:29;;;;;;;134.93;61.30;;;;;;;17.04;100.00;100791.19;5055063;28;20487;-77
2022/08/16 06:16:55;;;;;;;117.93;57.85;;;;;;;17.12;100.00;100801.84;5055236;28;20025;-77
2022/08/16 06:19:20;;;;;;;125.10;59.70;;;;;;;17.15;100.00;100801.47;5055299;28;20540;-77
2022/08/16 06:21:46;;;;;;;143.75;62.80;;;;;;;17.19;100.00;100804.66;5053259;28;20445;-76
2022/08/16 06:24:12;;;;;;;132.70;57.85;;;;;;;17.26;100.00;100795.66;5054854;28;20059;-77
2022/08/16 06:26:37;;;;;;;123.45;57.67;;;;;;;17.35;100.00;100803.66;5054535;28;20034;-76
2022/08/16 06:29:03;;;;;;;104.68;53.92;;;;;;;17.42;100.00;100801.88;5052875;28;20032;-76
2022/08/16 06:31:28;;;;;;;113.45;55.30;;;;;;;17.48;100.00;100795.78;5054117;28;20444;-75
2022/08/16 06:33:54;;;;;;;111.13;55.38;;;;;;;17.59;100.00;100799.84;5054130;28;20033;-78
2022/08/16 06:36:19;;;;;;;102.80;51.08;;;;;;;17.68;100.00;100798.72;5054070;28;20029;-76
2022/08/16 06:38:45;;;;;;;110.90;54.45;;;;;;;17.73;100.00;100793.59;5054558;28;20029;-77
2022/08/16 06:41:11;;;;;;;113.13;53.63;;;;;;;17.79;100.00;100795.56;5054098;28;20029;-77
2022/08/16 06:43:36;;;;;;;112.10;54.70;;;;;;;17.92;100.00;100781.44;5053473;28;20140;-77
2022/08/16 06:46:04;;;;;;;107.28;53.85;;;;;;;18.01;100.00;100789.44;5052876;28;20028;-77
2022/08/16 06:48:30;;;;;;;101.55;52.30;;;;;;;18.11;100.00;100795.34;5054080;28;20179;-77
2022/08/16 06:50:57;;;;;;;111.80;53.35;;;;;;;18.22;100.00;100794.00;5053828;28;20055;-74
2022/08/16 06:53:23;;;;;;;101.90;52.47;;;;;;;18.32;100.00;100797.22;5052229;28;20095;-75
2022/08/16 06:55:49;;;;;;;95.13;51.25;;;;;;;18.42;100.00;100803.13;5054026;28;20029;-74
2022/08/16 06:58:15;;;;;;;89.20;48.20;;;;;;;18.47;100.00;100814.16;5053964;28;20498;-74
2022/08/16 07:00:40;;;;;;;87.47;47.28;;;;;;;18.59;100.00;100813.66;5054458;28;20136;-74
2022/08/16 07:03:06;;;;;;;79.85;42.90;;;;;;;18.72;100.00;100813.78;5053830;28;20037;-74
2022/08/16 07:05:32;;;;;;;79.57;43.72;;;;;;;18.84;100.00;100817.63;5053524;28;20067;-73
2022/08/16 07:07:58;;;;;;;81.03;45.15;;;;;;;18.97;100.00;100814.25;5053761;28;20056;-74
2022/08/16 07:10:24;;;;;;;75.68;41.90;;;;;;;19.12;100.00;100810.59;5053684;28;20024;-74
2022/08/16 07:12:50;;;;;;;67.28;39.90;;;;;;;19.24;100.00;100819.81;5054338;28;20052;-74
2022/08/16 07:15:17;;;;;;;62.40;38.17;;;;;;;19.30;100.00;100815.50;5053697;28;20071;-74
2022/08/16 07:17:43;;;;;;;69.20;38.20;;;;;;;19.48;100.00;100823.06;5053693;28;20037;-74
2022/08/16 07:20:09;;;;;;;62.65;36.00;;;;;;;19.61;100.00;100811.53;5053771;28;20482;-75
2022/08/16 07:22:35;;;;;;;62.45;34.45;;;;;;;19.71;100.00;100810.13;5054014;28;20033;-73
2022/08/16 07:25:01;;;;;;;57.17;34.40;;;;;;;19.92;100.00;100818.38;5053904;28;20044;-75
2022/08/16 07:27:27;;;;;;;50.45;31.50;;;;;;;20.01;100.00;100823.38;5052410;28;20082;-74
2022/08/16 07:29:53;;;;;;;50.08;29.33;;;;;;;20.00;100.00;100813.59;5053286;28;20597;-75
2022/08/16 07:32:19;;;;;;;51.47;31.48;;;;;;;19.97;100.00;100822.09;5053975;28;20033;-74
2022/08/16 07:34:45;;;;;;;45.33;28.17;;;;;;;20.08;100.00;100820.72;5052581;28;20364;-75
2022/08/16 07:37:11;;;;;;;42.60;28.95;;;;;;;20.16;100.00;100833.22;5053120;28;20037;-74
2022/08/16 07:39:38;;;;;;;44.80;28.00;;;;;;;20.18;100.00;100823.03;5053521;28;20059;-74
2022/08/16 07:42:04;;;;;;;48.22;30.13;;;;;;;20.32;100.00;100818.47;5053137;28;20029;-74
2022/08/16 07:44:29;;;;;;;44.13;27.98;;;;;;;20.57;100.00;100829.56;5053503;28;20064;-74
2022/08/16 07:46:55;;;;;;;41.75;26.67;;;;;;;20.84;100.00;100832.31;5053531;28;20037;-73
2022/08/16 07:49:21;;;;;;;34.38;23.38;;;;;;;21.11;100.00;100831.28;5052969;28;20483;-74
2022/08/16 07:51:47;;;;;;;38.35;23.50;;;;;;;21.40;100.00;100833.75;5052906;28;20021;-74
2022/08/16 07:54:13;;;;;;;39.83;22.77;;;;;;;21.54;100.00;100837.28;5052969;28;20475;-73
2022/08/16 07:56:38;;;;;;;36.03;22.63;;;;;;;21.66;100.00;100832.88;5053021;28;20070;-74
2022/08/16 07:59:05;;;;;;;33.92;23.63;;;;;;;21.72;100.00;100831.19;5052866;28;20324;-74
2022/08/16 08:01:31;;;;;;;39.35;24.02;;;;;;;21.79;100.00;100834.72;5053915;28;20068;-74
2022/08/16 08:03:57;;;;;;;27.23;19.25;;;;;;;21.90;100.00;100836.78;5052807;28;20041;-75
2022/08/16 08:06:29;;;;;;;24.27;17.73;;;;;;;22.04;100.00;100834.84;5053357;28;20033;-75
2022/08/16 08:08:56;;;;;;;27.55;18.30;;;;;;;22.18;100.00;100832.88;5053372;28;20044;-74
2022/08/16 08:11:22;;;;;;;26.77;17.77;;;;;;;22.18;100.00;100832.88;5052499;28;20463;-75
2022/08/16 08:13:50;;;;;;;26.25;17.27;;;;;;;22.44;100.00;100834.66;5053014;28;20470;-73
2022/08/16 08:16:15;;;;;;;26.95;17.05;;;;;;;22.49;100.00;100823.97;5052929;28;20025;-73
2022/08/16 08:18:43;;;;;;;27.73;18.00;;;;;;;22.63;100.00;100832.03;5051365;28;20033;-74
2022/08/16 08:21:09;;;;;;;26.05;16.48;;;;;;;22.81;98.81;100828.56;5052877;28;20088;-72
2022/08/16 08:23:35;;;;;;;30.10;17.80;;;;;;;23.06;99.87;100829.41;5053064;28;20025;-73
2022/08/16 08:26:02;;;;;;;24.67;17.23;;;;;;;23.41;100.00;100838.94;5051852;28;20386;-74
2022/08/16 08:28:29;;;;;;;27.70;18.15;;;;;;;23.81;97.50;100849.34;5052745;28;20033;-73
2022/08/16 08:30:55;;;;;;;27.88;19.60;;;;;;;24.22;94.97;100839.66;5053497;28;20056;-73
2022/08/16 08:33:20;;;;;;;27.02;19.27;;;;;;;24.47;91.68;100844.13;5052776;28;20479;-73
2022/08/16 08:35:45;;;;;;;39.60;20.10;;;;;;;24.39;88.71;100845.31;5052272;28;20086;-73
2022/08/16 08:38:11;;;;;;;31.73;19.55;;;;;;;24.30;91.90;100849.38;5051949;28;20124;-73
2022/08/16 08:40:36;;;;;;;29.95;19.13;;;;;;;24.59;90.73;100853.19;5052308;28;20065;-73
2022/08/16 08:43:02;;;;;;;26.98;17.40;;;;;;;25.12;89.38;100853.41;5052482;28;20064;-73
2022/08/16 08:45:29;;;;;;;33.95;20.73;;;;;;;25.24;81.26;100859.66;5052356;28;20037;-72
2022/08/16 08:47:56;;;;;;;31.30;20.67;;;;;;;25.49;81.83;100870.34;5053228;28;20061;-73
2022/08/16 08:50:22;;;;;;;34.40;22.42;;;;;;;25.62;84.28;100860.28;5051581;28;20410;-73
2022/08/16 08:52:50;;;;;;;33.00;21.73;;;;;;;25.94;80.16;100874.31;5055976;28;20037;-73
2022/08/16 08:55:21;;;;;;;28.33;19.30;;;;;;;26.11;77.52;100868.13;5056549;28;20033;-73
2022/08/16 08:57:48;;;;;;;34.67;21.75;;;;;;;25.91;80.55;100872.06;5056164;28;20057;-72
2022/08/16 09:00:16;;;;;;;36.50;23.58;;;;;;;25.90;79.32;100870.44;5056326;28;20032;-72
2022/08/16 09:02:42;;;;;;;31.02;19.90;;;;;;;26.01;77.13;100883.22;5056277;28;20029;-72
2022/08/16 09:05:08;;;;;;;31.50;21.27;;;;;;;25.98;79.34;100883.66;5056268;28;20056;-72
2022/08/16 09:07:33;;;;;;;31.42;20.92;;;;;;;25.87;77.73;100884.50;5056270;28;20510;-72
2022/08/16 09:09:59;;;;;;;34.45;21.98;;;;;;;25.86;76.77;100880.16;5054522;28;20029;-72
2022/08/16 09:12:25;;;;;;;31.08;21.17;;;;;;;26.11;78.05;100890.78;5056006;28;20390;-72
2022/08/16 09:14:50;;;;;;;30.92;19.52;;;;;;;26.71;78.88;100886.78;5055779;28;20451;-73
2022/08/16 09:17:16;;;;;;;35.47;19.80;;;;;;;27.37;71.88;100879.94;5055895;28;20064;-72
2022/08/16 09:19:42;;;;;;;28.25;18.77;;;;;;;28.19;69.21;100886.53;5056441;28;20029;-73
2022/08/16 09:22:10;;;;;;;27.48;15.90;;;;;;;29.15;60.49;100884.97;5056063;28;20033;-73
2022/08/16 09:24:36;;;;;;;24.95;16.48;;;;;;;30.14;56.57;100883.66;5056588;28;20025;-78
2022/08/16 09:27:01;;;;;;;20.48;12.90;;;;;;;30.71;53.26;100890.09;5057258;28;20363;-85
2022/08/16 09:29:27;;;;;;;22.35;13.10;;;;;;;30.12;53.51;100886.66;5057483;28;20467;-85
2022/08/16 09:31:55;;;;;;;20.13;12.45;;;;;;;29.75;53.59;100884.81;5057140;28;20122;-84
2022/08/16 09:34:21;;;;;;;19.77;12.88;;;;;;;29.02;55.84;100885.41;5058360;28;20029;-82
2022/08/16 09:36:47;;;;;;;24.25;12.95;;;;;;;28.82;57.21;100892.38;5056988;28;20063;-81
2022/08/16 09:39:14;;;;;;;17.95;12.00;;;;;;;29.00;58.87;100885.69;5055071;28;20029;-80
2022/08/16 09:41:39;;;;;;;23.27;11.68;;;;;;;29.47;58.41;100895.09;5056798;28;20039;-81
2022/08/16 09:44:05;;;;;;;21.08;12.25;;;;;;;30.15;54.20;100894.34;5055134;28;20127;-77
2022/08/16 09:46:31;;;;;;;19.40;12.18;;;;;;;30.66;50.06;100892.84;5054519;28;20033;-81
2022/08/16 09:48:57;;;;;;;21.30;12.60;;;;;;;30.28;56.04;100892.22;5056191;28;20036;-81
2022/08/16 09:51:25;;;;;;;26.67;12.75;;;;;;;30.33;53.46;100887.53;5055620;28;20036;-86
2022/08/16 09:53:54;;;;;;;19.45;12.40;;;;;;;30.44;53.32;100887.59;5055867;28;20049;-83
2022/08/16 09:56:32;;;;;;;21.10;12.10;;;;;;;30.68;50.16;100888.75;5055980;28;20435;-82
2022/08/16 09:58:59;;;;;;;24.58;13.85;;;;;;;30.99;51.08;100887.97;5055401;28;20051;-79
2022/08/16 10:01:24;;;;;;;19.25;14.10;;;;;;;31.24;49.76;100876.94;5055495;28;20175;-79
2022/08/16 10:03:51;;;;;;;24.52;13.50;;;;;;;31.43;52.69;100895.59;5053181;28;20533;-81
2022/08/16 10:06:19;;;;;;;18.42;13.35;;;;;;;30.90;51.51;100898.63;5055498;28;20040;-81
2022/08/16 10:08:48;;;;;;;16.48;11.50;;;;;;;30.46;52.02;100910.94;5055548;28;20433;-81
2022/08/16 10:14:01;;;;;;;21.33;14.70;;;;;;;28.71;59.82;100906.22;5055599;28;20354;-74
2022/08/16 10:16:27;;;;;;;25.80;14.98;;;;;;;28.28;60.47;100904.13;5055126;28;20029;-75
2022/08/16 10:18:52;;;;;;;24.02;15.55;;;;;;;28.25;59.51;100910.09;5054594;28;20040;-75
2022/08/16 10:21:18;;;;;;;21.50;14.98;;;;;;;28.19;61.41;100902.94;5055139;28;20037;-76
2022/08/16 10:23:44;;;;;;;25.35;15.25;;;;;;;28.18;59.30;100900.44;5054763;28;20479;-76
2022/08/16 10:26:10;;;;;;;18.35;13.02;;;;;;;28.19;58.43;100904.84;5055589;28;20036;-75
2022/08/16 10:28:35;;;;;;;22.27;12.85;;;;;;;28.30;58.76;100906.59;5054756;28;20033;-76
2022/08/16 10:31:03;;;;;;;18.88;13.23;;;;;;;28.32;58.15;100913.47;5054708;28;20033;-75
2022/08/16 10:33:29;;;;;;;23.15;14.30;;;;;;;28.17;59.11;100913.31;5055362;28;20145;-76
2022/08/16 10:35:55;;;;;;;23.08;13.85;;;;;;;27.91;62.42;100920.31;5055417;28;20029;-76
2022/08/16 10:38:21;;;;;;;20.52;13.30;;;;;;;27.94;60.54;100919.81;5053410;28;20433;-77
2022/08/16 10:40:46;;;;;;;24.08;13.80;;;;;;;28.07;61.87;100916.72;5055214;28;20029;-78
2022/08/16 10:43:12;;;;;;;23.85;13.40;;;;;;;28.15;61.81;100910.78;5054960;28;20051;-75
2022/08/16 10:45:39;;;;;;;22.48;13.18;;;;;;;28.31;60.33;100919.22;5054781;28;20035;-79
2022/08/16 10:48:07;;;;;;;19.27;11.80;;;;;;;28.38;58.89;100928.03;5055451;28;20423;-78
2022/08/16 10:50:33;;;;;;;19.50;13.40;;;;;;;28.23;59.51;100927.84;5055458;28;20033;-78
2022/08/16 10:53:05;;;;;;;21.63;11.25;;;;;;;27.97;57.91;100920.16;5054328;28;20044;-77
2022/08/16 10:55:32;;;;;;;16.52;8.93;;;;;;;27.72;60.05;100925.25;5054965;28;20087;-77
2022/08/16 10:58:01;;;;;;;11.57;8.23;;;;;;;27.54;59.80;100929.91;5054027;28;20466;-76
2022/08/16 11:00:27;;;;;;;16.50;8.10;;;;;;;27.51;60.58;100933.13;5054363;28;20071;-76